sensor_id;sensor_type;location;lat;lon;timestamp;P1;P2;P0
61879;PMS7003;47817;52.798;27.544;2023-05-15T00:01:22;7;6.6;4.8
61879;PMS7003;47817;52.798;27.544;2023-05-15T00:06:20;7.4;6.6;6
61879;PMS7003;47817;52.798;27.544;2023-05-15T00:11:20;9;7;6
61879;PMS7003;47817;52.798;27.544;2023-05-15T00:17:10;8;6;5.2
61879;PMS7003;47817;52.798;27.544;2023-05-15T00:21:40;7.4;7;5.8
61879;PMS7003;47817;52.798;27.544;2023-05-15T00:26:21;9;7.2;6.4
61879;PMS7003;47817;52.798;27.544;2023-05-15T00:32:10;7.8;7.2;5.6
61879;PMS7003;47817;52.798;27.544;2023-05-15T00:36:40;7.4;6.8;5.4
61879;PMS7003;47817;52.798;27.544;2023-05-15T00:41:20;8.4;7.4;6.2
61879;PMS7003;47817;52.798;27.544;2023-05-15T00:46:58;9;7.5;6.3
61879;PMS7003;47817;52.798;27.544;2023-05-15T00:52:08;9.2;7.8;6.2
61879;PMS7003;47817;52.798;27.544;2023-05-15T00:56:20;8;7.2;5.8
61879;PMS7003;47817;52.798;27.544;2023-05-15T01:01:42;7.6;7.2;6.2
61879;PMS7003;47817;52.798;27.544;2023-05-15T01:07:08;7.6;6.8;5.6
61879;PMS7003;47817;52.798;27.544;2023-05-15T01:12:09;7.2;6.6;6
61879;PMS7003;47817;52.798;27.544;2023-05-15T01:16:42;6.8;6.8;6.3
61879;PMS7003;47817;52.798;27.544;2023-05-15T01:21:26;7.6;7;5.6
61879;PMS7003;47817;52.798;27.544;2023-05-15T01:27:11;8.4;6.8;5.6
61879;PMS7003;47817;52.798;27.544;2023-05-15T01:31:53;8.6;6.6;5.6
61879;PMS7003;47817;52.798;27.544;2023-05-15T01:36:22;8;6.6;5.4
61879;PMS7003;47817;52.798;27.544;2023-05-15T01:41:35;7;5.8;5
61879;PMS7003;47817;52.798;27.544;2023-05-15T01:47:00;8.8;6.8;5.4
61879;PMS7003;47817;52.798;27.544;2023-05-15T01:51:29;6.4;6.2;5
61879;PMS7003;47817;52.798;27.544;2023-05-15T01:56:44;7.4;5.8;5
61879;PMS7003;47817;52.798;27.544;2023-05-15T02:02:08;8.6;6.8;6
61879;PMS7003;47817;52.798;27.544;2023-05-15T02:06:42;7.5;6;4.8
61879;PMS7003;47817;52.798;27.544;2023-05-15T02:12:09;8.2;6.2;5
61879;PMS7003;47817;52.798;27.544;2023-05-15T02:16:56;7.6;6.8;5.8
61879;PMS7003;47817;52.798;27.544;2023-05-15T02:21:20;7.5;7;5.8
61879;PMS7003;47817;52.798;27.544;2023-05-15T02:26:52;8.2;7.4;5.6
61879;PMS7003;47817;52.798;27.544;2023-05-15T02:31:29;9.2;7;5.6
61879;PMS7003;47817;52.798;27.544;2023-05-15T02:37:09;8;7.8;6.2
61879;PMS7003;47817;52.798;27.544;2023-05-15T02:41:52;9.8;7.4;6.2
61879;PMS7003;47817;52.798;27.544;2023-05-15T02:47:08;9;7.2;5.8
61879;PMS7003;47817;52.798;27.544;2023-05-15T02:51:35;10.8;8.2;6.2
61879;PMS7003;47817;52.798;27.544;2023-05-15T02:56:58;7.4;7;6
61879;PMS7003;47817;52.798;27.544;2023-05-15T03:01:40;8.8;6.8;5.6
61879;PMS7003;47817;52.798;27.544;2023-05-15T03:06:44;10.8;8.4;7.2
61879;PMS7003;47817;52.798;27.544;2023-05-15T03:11:20;10.2;8.6;6.8
61879;PMS7003;47817;52.798;27.544;2023-05-15T03:16:32;10;9;7
61879;PMS7003;47817;52.798;27.544;2023-05-15T03:22:10;8.8;7.2;5.4
61879;PMS7003;47817;52.798;27.544;2023-05-15T03:26:32;7.4;6.8;5.6
61879;PMS7003;47817;52.798;27.544;2023-05-15T03:31:32;9.8;7.2;5.8
61879;PMS7003;47817;52.798;27.544;2023-05-15T03:37:10;10;7.6;6.6
61879;PMS7003;47817;52.798;27.544;2023-05-15T03:41:56;10.4;9.6;7
61879;PMS7003;47817;52.798;27.544;2023-05-15T03:46:20;9.4;8.6;6.4
61879;PMS7003;47817;52.798;27.544;2023-05-15T03:52:00;11.4;8.2;6.6
61879;PMS7003;47817;52.798;27.544;2023-05-15T03:57:10;9.2;7.2;5.8
61879;PMS7003;47817;52.798;27.544;2023-05-15T04:01:32;6;5.8;5.5
61879;PMS7003;47817;52.798;27.544;2023-05-15T04:06:58;9.2;8.2;6.4
61879;PMS7003;47817;52.798;27.544;2023-05-15T04:12:10;8.4;7;5.6
61879;PMS7003;47817;52.798;27.544;2023-05-15T04:17:10;8.8;7.6;6.4
61879;PMS7003;47817;52.798;27.544;2023-05-15T04:21:20;8.4;7.2;6.2
61879;PMS7003;47817;52.798;27.544;2023-05-15T04:26:38;9.2;8.6;6.4
61879;PMS7003;47817;52.798;27.544;2023-05-15T04:32:10;9.8;8.8;6.8
61879;PMS7003;47817;52.798;27.544;2023-05-15T04:36:54;10;8.8;7
61879;PMS7003;47817;52.798;27.544;2023-05-15T04:41:34;8.4;7;6
61879;PMS7003;47817;52.798;27.544;2023-05-15T04:46:35;7.8;7.4;6.6
61879;PMS7003;47817;52.798;27.544;2023-05-15T04:52:00;11.8;10.4;8.8
61879;PMS7003;47817;52.798;27.544;2023-05-15T04:56:32;12.8;9.8;7.2
61879;PMS7003;47817;52.798;27.544;2023-05-15T05:01:20;10.8;10.2;8.4
61879;PMS7003;47817;52.798;27.544;2023-05-15T05:07:10;9.4;8.8;7.2
61879;PMS7003;47817;52.798;27.544;2023-05-15T05:11:32;9;8.2;6.6
61879;PMS7003;47817;52.798;27.544;2023-05-15T05:17:11;9.4;7.8;7
61879;PMS7003;47817;52.798;27.544;2023-05-15T05:21:57;9.8;8.6;7.2
61879;PMS7003;47817;52.798;27.544;2023-05-15T05:26:20;10;9.3;7.5
61879;PMS7003;47817;52.798;27.544;2023-05-15T05:31:55;10.4;9.4;8.2
61879;PMS7003;47817;52.798;27.544;2023-05-15T05:36:40;10;8.8;7.4
61879;PMS7003;47817;52.798;27.544;2023-05-15T05:41:20;10;8.8;7.4
61879;PMS7003;47817;52.798;27.544;2023-05-15T05:47:00;9.8;9.2;7.8
61879;PMS7003;47817;52.798;27.544;2023-05-15T05:51:54;11;9.3;7.3
61879;PMS7003;47817;52.798;27.544;2023-05-15T05:56:44;9;7.6;6.8
61879;PMS7003;47817;52.798;27.544;2023-05-15T06:02:10;8;7;6.4
61879;PMS7003;47817;52.798;27.544;2023-05-15T06:07:10;10.2;8.6;7.4
61879;PMS7003;47817;52.798;27.544;2023-05-15T06:11:23;11;10;7.6
61879;PMS7003;47817;52.798;27.544;2023-05-15T06:16:32;11.8;10;8.8
61879;PMS7003;47817;52.798;27.544;2023-05-15T06:21:20;8.8;7.8;6.8
61879;PMS7003;47817;52.798;27.544;2023-05-15T06:27:00;9.8;8.6;7.4
61879;PMS7003;47817;52.798;27.544;2023-05-15T06:31:55;8.8;7.8;6.4
61879;PMS7003;47817;52.798;27.544;2023-05-15T06:36:31;9;8.8;7.5
61879;PMS7003;47817;52.798;27.544;2023-05-15T06:42:11;10;9.4;7.8
61879;PMS7003;47817;52.798;27.544;2023-05-15T06:47:11;8.4;7.8;6.8
61879;PMS7003;47817;52.798;27.544;2023-05-15T06:51:41;10.4;8.4;7
61879;PMS7003;47817;52.798;27.544;2023-05-15T06:57:11;7.2;6.8;6.2
61879;PMS7003;47817;52.798;27.544;2023-05-15T07:01:55;7;6.4;6
61879;PMS7003;47817;52.798;27.544;2023-05-15T07:06:33;7.8;7.2;5.6
61879;PMS7003;47817;52.798;27.544;2023-05-15T07:11:45;7.2;6.4;5.4
61879;PMS7003;47817;52.798;27.544;2023-05-15T07:16:57;6.4;5.8;5
61879;PMS7003;47817;52.798;27.544;2023-05-15T07:21:21;5.8;5.8;5
61879;PMS7003;47817;52.798;27.544;2023-05-15T07:27:11;6.8;6;5.4
61879;PMS7003;47817;52.798;27.544;2023-05-15T07:31:41;6.8;6.3;5.8
61879;PMS7003;47817;52.798;27.544;2023-05-15T07:37:11;6.2;5.8;5
61879;PMS7003;47817;52.798;27.544;2023-05-15T07:41:43;5;4;3.6
61879;PMS7003;47817;52.798;27.544;2023-05-15T07:47:11;6.6;5.2;4.4
61879;PMS7003;47817;52.798;27.544;2023-05-15T07:51:47;5.8;5.4;4.4
61879;PMS7003;47817;52.798;27.544;2023-05-15T07:56:59;6.4;5.6;4.8
61879;PMS7003;47817;52.798;27.544;2023-05-15T08:01:29;7.3;6.5;6
61879;PMS7003;47817;52.798;27.544;2023-05-15T08:06:55;7;5.6;4.8
61879;PMS7003;47817;52.798;27.544;2023-05-15T08:11:33;7;6;5
61879;PMS7003;47817;52.798;27.544;2023-05-15T08:16:21;5.8;5;4.2
61879;PMS7003;47817;52.798;27.544;2023-05-15T08:21:55;4.4;3.8;3.6
61879;PMS7003;47817;52.798;27.544;2023-05-15T08:26:41;6.4;5.2;4.8
61879;PMS7003;47817;52.798;27.544;2023-05-15T08:31:35;6.8;5.2;4.4
61879;PMS7003;47817;52.798;27.544;2023-05-15T08:36:57;5.5;4.5;4
61879;PMS7003;47817;52.798;27.544;2023-05-15T08:41:39;5.4;4.6;3.8
61879;PMS7003;47817;52.798;27.544;2023-05-15T08:46:21;4.2;4;3.4
61879;PMS7003;47817;52.798;27.544;2023-05-15T08:52:01;4.8;3.8;3.2
61879;PMS7003;47817;52.798;27.544;2023-05-15T08:57:11;4;4;2.8
61879;PMS7003;47817;52.798;27.544;2023-05-15T09:01:29;3.4;2.6;2.6
61879;PMS7003;47817;52.798;27.544;2023-05-15T09:06:45;4;3.6;3
61879;PMS7003;47817;52.798;27.544;2023-05-15T09:12:12;3.4;3.2;2.4
61879;PMS7003;47817;52.798;27.544;2023-05-15T09:17:11;5.2;3.8;3
61879;PMS7003;47817;52.798;27.544;2023-05-15T09:21:33;4.2;3.8;3.4
61879;PMS7003;47817;52.798;27.544;2023-05-15T09:26:41;3.4;3.4;2.6
61879;PMS7003;47817;52.798;27.544;2023-05-15T09:32:12;4;3.2;2.8
61879;PMS7003;47817;52.798;27.544;2023-05-15T09:36:55;4.3;3.5;3
61879;PMS7003;47817;52.798;27.544;2023-05-15T09:41:49;3.6;3.6;3.2
61879;PMS7003;47817;52.798;27.544;2023-05-15T09:46:47;4;3;2.8
61879;PMS7003;47817;52.798;27.544;2023-05-15T09:52:01;4.6;4;3.4
61879;PMS7003;47817;52.798;27.544;2023-05-15T09:56:21;4.3;4.3;3.3
61879;PMS7003;47817;52.798;27.544;2023-05-15T10:01:33;5;4.2;3.8
61879;PMS7003;47817;52.798;27.544;2023-05-15T10:07:11;4.8;4.2;3.4
61879;PMS7003;47817;52.798;27.544;2023-05-15T10:11:46;5.6;4.4;3.6
61879;PMS7003;47817;52.798;27.544;2023-05-15T10:17:11;4.6;4;3.6
61879;PMS7003;47817;52.798;27.544;2023-05-15T10:21:55;4.2;3.4;2.8
61879;PMS7003;47817;52.798;27.544;2023-05-15T10:26:34;4.4;3.8;3
61879;PMS7003;47817;52.798;27.544;2023-05-15T10:31:53;4.2;4;3
61879;PMS7003;47817;52.798;27.544;2023-05-15T10:36:21;3.8;3.4;3
61879;PMS7003;47817;52.798;27.544;2023-05-15T10:41:45;3.8;3.5;2.8
61879;PMS7003;47817;52.798;27.544;2023-05-15T10:47:01;3.6;3;2.4
61879;PMS7003;47817;52.798;27.544;2023-05-15T10:52:13;3.4;3;2.6
61879;PMS7003;47817;52.798;27.544;2023-05-15T10:56:43;4.2;3.8;3.4
61879;PMS7003;47817;52.798;27.544;2023-05-15T11:02:25;4;3.4;3.2
61879;PMS7003;47817;52.798;27.544;2023-05-15T11:07:10;4.6;3.6;3
61879;PMS7003;47817;52.798;27.544;2023-05-15T11:11:55;4.2;3.8;3.2
61879;PMS7003;47817;52.798;27.544;2023-05-15T11:17:01;3.6;3.2;2.4
61879;PMS7003;47817;52.798;27.544;2023-05-15T11:21:43;4.6;3.4;3
61879;PMS7003;47817;52.798;27.544;2023-05-15T11:27:05;4.8;4;3.6
61879;PMS7003;47817;52.798;27.544;2023-05-15T11:31:47;3.8;3.5;3.3
61879;PMS7003;47817;52.798;27.544;2023-05-15T11:36:22;3.2;3.2;2.6
61879;PMS7003;47817;52.798;27.544;2023-05-15T11:42:10;4.2;3.8;3.4
61879;PMS7003;47817;52.798;27.544;2023-05-15T11:46:31;4.2;3.8;3.2
61879;PMS7003;47817;52.798;27.544;2023-05-15T11:51:53;3.5;3.3;3
61879;PMS7003;47817;52.798;27.544;2023-05-15T11:56:47;4.4;4;3.2
61879;PMS7003;47817;52.798;27.544;2023-05-15T12:02:09;4.6;4.2;3.6
61879;PMS7003;47817;52.798;27.544;2023-05-15T12:06:21;3.6;3.6;3.2
61879;PMS7003;47817;52.798;27.544;2023-05-15T12:11:21;4.6;3.8;3.4
61879;PMS7003;47817;52.798;27.544;2023-05-15T12:17:09;4;3.4;3.4
61879;PMS7003;47817;52.798;27.544;2023-05-15T12:22:07;3.8;3.6;3.4
61879;PMS7003;47817;52.798;27.544;2023-05-15T12:26:43;4.8;3.4;3
61879;PMS7003;47817;52.798;27.544;2023-05-15T12:31:39;4.6;4;3.4
61879;PMS7003;47817;52.798;27.544;2023-05-15T12:37:10;4.8;4.2;3.6
61879;PMS7003;47817;52.798;27.544;2023-05-15T12:41:53;4.6;3.4;3.4
61879;PMS7003;47817;52.798;27.544;2023-05-15T12:46:21;4.5;3.8;3.3
61879;PMS7003;47817;52.798;27.544;2023-05-15T12:51:45;4.6;4.4;3.8
61879;PMS7003;47817;52.798;27.544;2023-05-15T12:56:59;4.2;4.2;3
61879;PMS7003;47817;52.798;27.544;2023-05-15T13:01:31;4;3.8;3.2
61879;PMS7003;47817;52.798;27.544;2023-05-15T13:06:45;4.4;4.2;3.2
61879;PMS7003;47817;52.798;27.544;2023-05-15T13:12:11;4;3.4;3
61879;PMS7003;47817;52.798;27.544;2023-05-15T13:16:21;4;3.6;3.6
61879;PMS7003;47817;52.798;27.544;2023-05-15T13:22:11;7.8;6.8;5.6
61879;PMS7003;47817;52.798;27.544;2023-05-15T13:26:57;6.8;6;5.3
61879;PMS7003;47817;52.798;27.544;2023-05-15T13:31:21;7;7;6
61879;PMS7003;47817;52.798;27.544;2023-05-15T13:36:55;8;7.2;6.4
61879;PMS7003;47817;52.798;27.544;2023-05-15T13:41:39;7.4;6.4;5.4
61879;PMS7003;47817;52.798;27.544;2023-05-15T13:46:45;6.2;5;4.4
61879;PMS7003;47817;52.798;27.544;2023-05-15T13:51:59;5.4;4.8;4.2
61879;PMS7003;47817;52.798;27.544;2023-05-15T13:57:11;6.8;5.5;4.8
61879;PMS7003;47817;52.798;27.544;2023-05-15T14:01:31;5.2;4.6;3.8
61879;PMS7003;47817;52.798;27.544;2023-05-15T14:07:09;5.6;5.6;4.8
61879;PMS7003;47817;52.798;27.544;2023-05-15T14:12:09;5.2;4.4;4
61879;PMS7003;47817;52.798;27.544;2023-05-15T14:16:57;4.6;4.6;3.8
61879;PMS7003;47817;52.798;27.544;2023-05-15T14:21:43;5.4;4.8;4.2
61879;PMS7003;47817;52.798;27.544;2023-05-15T14:26:43;5.2;4.6;4.2
61879;PMS7003;47817;52.798;27.544;2023-05-15T14:31:31;5;4.6;4
61879;PMS7003;47817;52.798;27.544;2023-05-15T14:36:51;3.8;3.4;3.2
61879;PMS7003;47817;52.798;27.544;2023-05-15T14:41:21;4.8;4;3.6
61879;PMS7003;47817;52.798;27.544;2023-05-15T14:47:07;6;5.2;4.2
61879;PMS7003;47817;52.798;27.544;2023-05-15T14:52:07;4;4;3.5
61879;PMS7003;47817;52.798;27.544;2023-05-15T14:56:21;4.6;4.6;4.2
61879;PMS7003;47817;52.798;27.544;2023-05-15T15:01:21;4.8;4.4;4
61879;PMS7003;47817;52.798;27.544;2023-05-15T15:06:53;5.4;4.4;4
61879;PMS7003;47817;52.798;27.544;2023-05-15T15:11:21;4.8;4.8;4.2
61879;PMS7003;47817;52.798;27.544;2023-05-15T15:16:43;3.8;3.8;3.4
61879;PMS7003;47817;52.798;27.544;2023-05-15T15:21:55;7;6;5.5
61879;PMS7003;47817;52.798;27.544;2023-05-15T15:26:21;16.8;15.2;11.6
61879;PMS7003;47817;52.798;27.544;2023-05-15T15:31:43;10.2;8.6;7.2
61879;PMS7003;47817;52.798;27.544;2023-05-15T15:36:39;5.6;5.4;4.6
61879;PMS7003;47817;52.798;27.544;2023-05-15T15:42:09;4.8;4.4;3.8
61879;PMS7003;47817;52.798;27.544;2023-05-15T15:46:53;4.6;4;3.4
61879;PMS7003;47817;52.798;27.544;2023-05-15T15:52:09;4.2;4;3.4
61879;PMS7003;47817;52.798;27.544;2023-05-15T15:56:45;4.3;4;3.8
61879;PMS7003;47817;52.798;27.544;2023-05-15T16:01:59;4.4;4;2.8
61879;PMS7003;47817;52.798;27.544;2023-05-15T16:06:31;4.6;4;3
61879;PMS7003;47817;52.798;27.544;2023-05-15T16:11:55;4.6;3.4;3
61879;PMS7003;47817;52.798;27.544;2023-05-15T16:16:43;4.4;3.6;2.8
61879;PMS7003;47817;52.798;27.544;2023-05-15T16:21:31;3.8;3.4;3
61879;PMS7003;47817;52.798;27.544;2023-05-15T16:27:09;4.2;3.2;3
61879;PMS7003;47817;52.798;27.544;2023-05-15T16:31:29;4.2;4;3.6
61879;PMS7003;47817;52.798;27.544;2023-05-15T16:36:31;3.8;3.3;2.3
61879;PMS7003;47817;52.798;27.544;2023-05-15T16:42:09;3.4;2.6;2.6
61879;PMS7003;47817;52.798;27.544;2023-05-15T16:46:39;4;4;3.6
61879;PMS7003;47817;52.798;27.544;2023-05-15T16:51:21;5.4;4.8;4.2
61879;PMS7003;47817;52.798;27.544;2023-05-15T16:56:59;4.4;4;3.4
61879;PMS7003;47817;52.798;27.544;2023-05-15T17:02:09;3.8;3.4;2.8
61879;PMS7003;47817;52.798;27.544;2023-05-15T17:06:31;4;2.6;2.2
61879;PMS7003;47817;52.798;27.544;2023-05-15T17:11:43;4;3.8;3.8
61879;PMS7003;47817;52.798;27.544;2023-05-15T17:17:09;5.8;4.4;4
61879;PMS7003;47817;52.798;27.544;2023-05-15T17:22:09;4;3.4;3.2
61879;PMS7003;47817;52.798;27.544;2023-05-15T17:26:31;4.3;3.8;3.8
61879;PMS7003;47817;52.798;27.544;2023-05-15T17:31:37;4;3.8;3.8
61879;PMS7003;47817;52.798;27.544;2023-05-15T17:37:07;5.8;5.6;4.8
61879;PMS7003;47817;52.798;27.544;2023-05-15T17:41:51;4.8;4.2;3.8
61879;PMS7003;47817;52.798;27.544;2023-05-15T17:46:31;4.8;4.2;3.6
61879;PMS7003;47817;52.798;27.544;2023-05-15T17:51:35;9.2;8.2;6.4
61879;PMS7003;47817;52.798;27.544;2023-05-15T17:56:59;12;9.4;7.8
61879;PMS7003;47817;52.798;27.544;2023-05-15T18:01:27;7.3;6.5;6
61879;PMS7003;47817;52.798;27.544;2023-05-15T18:06:45;7;6;5.4
61879;PMS7003;47817;52.798;27.544;2023-05-15T18:12:05;3.8;3.6;3.4
61879;PMS7003;47817;52.798;27.544;2023-05-15T18:16:29;6;5;3.8
61879;PMS7003;47817;52.798;27.544;2023-05-15T18:22:07;6.8;6;5.4
61879;PMS7003;47817;52.798;27.544;2023-05-15T18:26:47;8.8;7.4;6
61879;PMS7003;47817;52.798;27.544;2023-05-15T18:31:45;6.3;4.8;4.3
61879;PMS7003;47817;52.798;27.544;2023-05-15T18:36:49;5.8;5;4.4
61879;PMS7003;47817;52.798;27.544;2023-05-15T18:41:37;6.6;5.6;5
61879;PMS7003;47817;52.798;27.544;2023-05-15T18:46:45;6;5.2;4.4
61879;PMS7003;47817;52.798;27.544;2023-05-15T18:51:59;4.6;4.4;4.4
61879;PMS7003;47817;52.798;27.544;2023-05-15T18:56:51;6.2;5.6;4.8
61879;PMS7003;47817;52.798;27.544;2023-05-15T19:01:45;5.6;5.4;4.6
61879;PMS7003;47817;52.798;27.544;2023-05-15T19:07:07;6.6;5.4;4.6
61879;PMS7003;47817;52.798;27.544;2023-05-15T19:12:07;5.8;5.6;5
61879;PMS7003;47817;52.798;27.544;2023-05-15T19:16:53;9.3;7.5;6.3
61879;PMS7003;47817;52.798;27.544;2023-05-15T19:21:43;7;6.2;5.4
61879;PMS7003;47817;52.798;27.544;2023-05-15T19:26:31;7;6.4;5.6
61879;PMS7003;47817;52.798;27.544;2023-05-15T19:31:49;6.8;6.6;5.2
61879;PMS7003;47817;52.798;27.544;2023-05-15T19:36:51;6.4;5.8;5
61879;PMS7003;47817;52.798;27.544;2023-05-15T19:41:31;6.6;5.8;5.2
61879;PMS7003;47817;52.798;27.544;2023-05-15T19:47:07;6.4;5.6;4.6
61879;PMS7003;47817;52.798;27.544;2023-05-15T19:52:07;6.8;6;5.2
61879;PMS7003;47817;52.798;27.544;2023-05-15T19:56:21;7.6;6.6;5.4
61879;PMS7003;47817;52.798;27.544;2023-05-15T20:01:43;7.8;6.8;5.4
61879;PMS7003;47817;52.798;27.544;2023-05-15T20:06:51;5.8;5.5;4.8
61879;PMS7003;47817;52.798;27.544;2023-05-15T20:11:43;6.4;6;5.4
61879;PMS7003;47817;52.798;27.544;2023-05-15T20:16:43;7.6;6.6;5.6
61879;PMS7003;47817;52.798;27.544;2023-05-15T20:22:07;11.4;10.4;8.6
61879;PMS7003;47817;52.798;27.544;2023-05-15T20:27:07;7.6;6.6;5.8
61879;PMS7003;47817;52.798;27.544;2023-05-15T20:31:21;7;6.6;6
61879;PMS7003;47817;52.798;27.544;2023-05-15T20:36:27;7.2;6.4;5.4
61879;PMS7003;47817;52.798;27.544;2023-05-15T20:42:05;6.4;5.6;4.8
61879;PMS7003;47817;52.798;27.544;2023-05-15T20:46:23;6;5.6;5
61879;PMS7003;47817;52.798;27.544;2023-05-15T20:51:21;6;6;4.8
61879;PMS7003;47817;52.798;27.544;2023-05-15T20:56:21;6.6;5.6;4.6
61879;PMS7003;47817;52.798;27.544;2023-05-15T21:01:35;5.2;4.8;4
61879;PMS7003;47817;52.798;27.544;2023-05-15T21:06:21;5.8;5.2;4.6
61879;PMS7003;47817;52.798;27.544;2023-05-15T21:11:45;6.6;6;5.2
61879;PMS7003;47817;52.798;27.544;2023-05-15T21:17:07;5.5;5.5;5
61879;PMS7003;47817;52.798;27.544;2023-05-15T21:21:31;6.4;5.8;4.6
61879;PMS7003;47817;52.798;27.544;2023-05-15T21:27:07;5.8;5.4;4.4
61879;PMS7003;47817;52.798;27.544;2023-05-15T21:31:53;5.6;5.4;4.6
61879;PMS7003;47817;52.798;27.544;2023-05-15T21:36:21;6.2;5.6;5.2
61879;PMS7003;47817;52.798;27.544;2023-05-15T21:41:39;5.6;4.4;3.4
61879;PMS7003;47817;52.798;27.544;2023-05-15T21:46:21;4.6;4.4;4
61879;PMS7003;47817;52.798;27.544;2023-05-15T21:51:59;5.2;4.6;4
61879;PMS7003;47817;52.798;27.544;2023-05-15T21:56:59;4.4;4.4;3.6
61879;PMS7003;47817;52.798;27.544;2023-05-15T22:02:07;5.8;4.6;4
61879;PMS7003;47817;52.798;27.544;2023-05-15T22:06:45;6;4.8;4
61879;PMS7003;47817;52.798;27.544;2023-05-15T22:12:07;4.5;4.3;4
61879;PMS7003;47817;52.798;27.544;2023-05-15T22:17:07;4.8;4.6;3.8
61879;PMS7003;47817;52.798;27.544;2023-05-15T22:21:51;4.2;3.8;3.4
61879;PMS7003;47817;52.798;27.544;2023-05-15T22:26:43;4.6;3.6;3.6
61879;PMS7003;47817;52.798;27.544;2023-05-15T22:31:41;4.6;4.6;3.8
61879;PMS7003;47817;52.798;27.544;2023-05-15T22:36:57;4.6;4.6;3.8
61879;PMS7003;47817;52.798;27.544;2023-05-15T22:41:49;4;4;3.6
61879;PMS7003;47817;52.798;27.544;2023-05-15T22:46:45;4.6;3.8;3
61879;PMS7003;47817;52.798;27.544;2023-05-15T22:52:05;5.3;5;4.3
61879;PMS7003;47817;52.798;27.544;2023-05-15T22:57:05;4.6;4;3.8
61879;PMS7003;47817;52.798;27.544;2023-05-15T23:01:31;4.8;4.6;4
61879;PMS7003;47817;52.798;27.544;2023-05-15T23:06:45;4.8;4.2;3.6
61879;PMS7003;47817;52.798;27.544;2023-05-15T23:11:51;4.8;4;3.8
61879;PMS7003;47817;52.798;27.544;2023-05-15T23:16:33;4.4;4;3.4
61879;PMS7003;47817;52.798;27.544;2023-05-15T23:21:21;4.5;4;3.8
61879;PMS7003;47817;52.798;27.544;2023-05-15T23:26:53;5.2;4.8;3.8
61879;PMS7003;47817;52.798;27.544;2023-05-15T23:31:21;5.2;4.4;3.8
61879;PMS7003;47817;52.798;27.544;2023-05-15T23:37:05;4;3.8;3.6
61879;PMS7003;47817;52.798;27.544;2023-05-15T23:41:27;4;3.6;3
61879;PMS7003;47817;52.798;27.544;2023-05-15T23:47:07;4.4;4.4;4.2
61879;PMS7003;47817;52.798;27.544;2023-05-15T23:51:35;5.2;4.2;3.6
61879;PMS7003;47817;52.798;27.544;2023-05-15T23:57:07;4.4;3.6;3.6
